CheckWX is a tool to help pilots better visualize weather data.  It is not intended as a substitute for an official pre-flight weather briefing.

22:14:28 UTC

KBWI METAR
Baltimore / Washington International Thurgood Marshall Airport
Baltimore, Maryland, USA
Current

20 mins ago

KBWI 152154Z 29007KT 10SM FEW065 SCT250 31/16 A3002 RMK AO2 SLP165 T03110156
Observed
Jul-15 @ 21:54 UTC
Wind
  • 290° at 7 KTS
Visibility
10 SM
Flight Rules
VFR
Cloud Levels
  • Few at 6,500' AGL
  • Scattered at 25,000' AGL
Temperature
31°C / 88°F
Dewpoint
16°C / 61°F
Heat Index
31°C / 88°F
Humidity
40%
Altimeter
30.02" Hg
Pressure
1016.62 hPa
Previous

1 hour ago

KBWI 152054Z 28007G14KT 10SM FEW026 FEW065 SCT250 32/16 A3004 RMK AO2 SLP170 FU FEW026 E-SE T03170161 56009
Observed
Jul-15 @ 20:54 UTC
Wind
  • 280° at 7 KTS
  • Gusting to 14 KTS
Visibility
10 SM
Flight Rules
VFR
Cloud Levels
  • Few at 2,600' AGL
  • Few at 6,500' AGL
  • Scattered at 25,000' AGL
Temperature
32°C / 90°F
Dewpoint
16°C / 61°F
Humidity
38%
Altimeter
30.04" Hg
Pressure
1017.32 hPa
Previous

2 hours ago

KBWI 151954Z 34007KT 10SM FEW012 FEW060 SCT250 32/16 A3004 RMK AO2 SLP172 FU FEW012 OHD-W T03220156
Observed
Jul-15 @ 19:54 UTC
Wind
  • 340° at 7 KTS
Visibility
10 SM
Flight Rules
VFR
Cloud Levels
  • Few at 1,200' AGL
  • Few at 6,000' AGL
  • Scattered at 25,000' AGL
Temperature
32°C / 90°F
Dewpoint
16°C / 61°F
Humidity
38%
Altimeter
30.04" Hg
Pressure
1017.32 hPa